sensor_id;sensor_type;location;lat;lon;timestamp;pressure;altitude;pressure_sealevel;temperature;humidity
58471;BME280;44258;51.288;12.068;2023-03-14T00:02:13;98262.91;;;10.61;69.78
58471;BME280;44258;51.288;12.068;2023-03-14T00:04:42;98262.22;;;10.69;69.64
58471;BME280;44258;51.288;12.068;2023-03-14T00:07:10;98260.81;;;10.65;69.79
58471;BME280;44258;51.288;12.068;2023-03-14T00:09:37;98263.91;;;10.70;69.67
58471;BME280;44258;51.288;12.068;2023-03-14T00:12:04;98264.16;;;10.57;70.03
58471;BME280;44258;51.288;12.068;2023-03-14T00:14:32;98256.94;;;10.58;69.77
58471;BME280;44258;51.288;12.068;2023-03-14T00:17:00;98252.16;;;10.61;69.33
58471;BME280;44258;51.288;12.068;2023-03-14T00:19:27;98240.53;;;10.61;69.46
58471;BME280;44258;51.288;12.068;2023-03-14T00:21:56;98239.59;;;10.71;68.95
58471;BME280;44258;51.288;12.068;2023-03-14T00:24:23;98219.78;;;10.63;69.35
58471;BME280;44258;51.288;12.068;2023-03-14T00:26:49;98220.06;;;10.69;68.88
58471;BME280;44258;51.288;12.068;2023-03-14T00:29:17;98224.44;;;10.70;68.64
58471;BME280;44258;51.288;12.068;2023-03-14T00:31:43;98242.16;;;10.83;68.21
58471;BME280;44258;51.288;12.068;2023-03-14T00:34:12;98263.88;;;10.60;68.37
58471;BME280;44258;51.288;12.068;2023-03-14T00:36:39;98264.63;;;10.72;68.27
58471;BME280;44258;51.288;12.068;2023-03-14T00:39:06;98254.72;;;10.63;68.69
58471;BME280;44258;51.288;12.068;2023-03-14T00:41:32;98244.38;;;10.68;68.42
58471;BME280;44258;51.288;12.068;2023-03-14T00:43:59;98248.84;;;10.88;67.66
58471;BME280;44258;51.288;12.068;2023-03-14T00:46:26;98253.03;;;10.71;68.23
58471;BME280;44258;51.288;12.068;2023-03-14T00:48:53;98247.84;;;10.89;67.59
58471;BME280;44258;51.288;12.068;2023-03-14T00:51:21;98247.84;;;10.80;67.70
58471;BME280;44258;51.288;12.068;2023-03-14T00:53:48;98245.72;;;10.83;67.56
58471;BME280;44258;51.288;12.068;2023-03-14T00:56:14;98252.81;;;10.94;67.16
58471;BME280;44258;51.288;12.068;2023-03-14T00:58:41;98267.81;;;10.97;67.02
58471;BME280;44258;51.288;12.068;2023-03-14T01:01:10;98270.63;;;10.85;67.40
58471;BME280;44258;51.288;12.068;2023-03-14T01:03:37;98286.22;;;10.61;68.21
58471;BME280;44258;51.288;12.068;2023-03-14T01:06:09;98292.78;;;10.78;67.28
58471;BME280;44258;51.288;12.068;2023-03-14T01:08:38;98295.53;;;10.97;67.09
58471;BME280;44258;51.288;12.068;2023-03-14T01:11:07;98308.44;;;11.03;66.67
58471;BME280;44258;51.288;12.068;2023-03-14T01:13:37;98317.50;;;11.02;66.71
58471;BME280;44258;51.288;12.068;2023-03-14T01:16:07;98323.75;;;11.12;66.19
58471;BME280;44258;51.288;12.068;2023-03-14T01:18:36;98320.22;;;11.22;65.88
58471;BME280;44258;51.288;12.068;2023-03-14T01:21:07;98334.66;;;11.21;65.77
58471;BME280;44258;51.288;12.068;2023-03-14T01:23:38;98329.22;;;11.01;66.32
58471;BME280;44258;51.288;12.068;2023-03-14T01:26:08;98318.78;;;11.08;66.16
58471;BME280;44258;51.288;12.068;2023-03-14T01:28:35;98321.22;;;11.21;65.60
58471;BME280;44258;51.288;12.068;2023-03-14T01:31:03;98318.53;;;11.21;65.37
58471;BME280;44258;51.288;12.068;2023-03-14T01:33:30;98311.44;;;11.20;65.60
58471;BME280;44258;51.288;12.068;2023-03-14T01:35:57;98314.13;;;11.10;65.80
58471;BME280;44258;51.288;12.068;2023-03-14T01:38:25;98307.66;;;11.32;64.88
58471;BME280;44258;51.288;12.068;2023-03-14T01:40:53;98305.09;;;11.40;64.47
58471;BME280;44258;51.288;12.068;2023-03-14T01:43:21;98316.53;;;11.52;64.31
58471;BME280;44258;51.288;12.068;2023-03-14T01:46:14;98299.69;;;11.50;64.19
58471;BME280;44258;51.288;12.068;2023-03-14T01:48:51;98292.03;;;11.45;64.02
58471;BME280;44258;51.288;12.068;2023-03-14T01:51:23;98292.31;;;11.52;63.91
58471;BME280;44258;51.288;12.068;2023-03-14T01:53:54;98287.09;;;11.21;64.64
58471;BME280;44258;51.288;12.068;2023-03-14T01:56:24;98281.41;;;10.85;65.56
58471;BME280;44258;51.288;12.068;2023-03-14T01:58:51;98280.69;;;11.03;65.09
58471;BME280;44258;51.288;12.068;2023-03-14T02:01:21;98277.19;;;11.12;64.50
58471;BME280;44258;51.288;12.068;2023-03-14T02:03:54;98275.31;;;11.03;64.54
58471;BME280;44258;51.288;12.068;2023-03-14T02:06:24;98276.00;;;10.95;64.62
58471;BME280;44258;51.288;12.068;2023-03-14T02:08:53;98276.88;;;11.05;64.17
58471;BME280;44258;51.288;12.068;2023-03-14T02:11:21;98267.81;;;11.06;63.91
58471;BME280;44258;51.288;12.068;2023-03-14T02:13:50;98263.72;;;11.22;63.60
58471;BME280;44258;51.288;12.068;2023-03-14T02:16:17;98273.19;;;11.26;63.04
58471;BME280;44258;51.288;12.068;2023-03-14T02:18:43;98266.41;;;11.22;62.84
58471;BME280;44258;51.288;12.068;2023-03-14T02:21:14;98259.19;;;11.03;63.20
58471;BME280;44258;51.288;12.068;2023-03-14T02:23:50;98255.38;;;10.96;63.28
58471;BME280;44258;51.288;12.068;2023-03-14T02:26:22;98255.53;;;11.04;63.01
58471;BME280;44258;51.288;12.068;2023-03-14T02:28:52;98243.47;;;11.18;62.39
58471;BME280;44258;51.288;12.068;2023-03-14T02:31:22;98244.47;;;11.26;62.18
58471;BME280;44258;51.288;12.068;2023-03-14T02:33:50;98239.81;;;11.19;62.14
58471;BME280;44258;51.288;12.068;2023-03-14T02:36:19;98236.97;;;11.20;61.88
58471;BME280;44258;51.288;12.068;2023-03-14T02:38:53;98235.00;;;11.22;61.79
58471;BME280;44258;51.288;12.068;2023-03-14T02:41:22;98242.50;;;11.28;61.43
58471;BME280;44258;51.288;12.068;2023-03-14T02:43:52;98237.50;;;11.24;61.55
58471;BME280;44258;51.288;12.068;2023-03-14T02:46:20;98233.44;;;11.00;61.98
58471;BME280;44258;51.288;12.068;2023-03-14T02:48:49;98246.88;;;11.00;61.99
58471;BME280;44258;51.288;12.068;2023-03-14T02:51:18;98243.91;;;10.93;61.96
58471;BME280;44258;51.288;12.068;2023-03-14T02:53:45;98238.38;;;10.85;62.06
58471;BME280;44258;51.288;12.068;2023-03-14T02:56:13;98236.13;;;11.00;61.70
58471;BME280;44258;51.288;12.068;2023-03-14T02:58:40;98235.41;;;10.98;61.71
58471;BME280;44258;51.288;12.068;2023-03-14T03:01:08;98238.38;;;11.05;61.40
58471;BME280;44258;51.288;12.068;2023-03-14T03:03:35;98235.41;;;11.18;61.29
58471;BME280;44258;51.288;12.068;2023-03-14T03:06:01;98230.88;;;11.18;60.93
58471;BME280;44258;51.288;12.068;2023-03-14T03:08:29;98242.91;;;11.04;61.15
58471;BME280;44258;51.288;12.068;2023-03-14T03:10:56;98238.50;;;11.13;60.85
58471;BME280;44258;51.288;12.068;2023-03-14T03:13:23;98241.50;;;11.10;60.78
58471;BME280;44258;51.288;12.068;2023-03-14T03:15:50;98246.31;;;11.06;60.67
58471;BME280;44258;51.288;12.068;2023-03-14T03:18:19;98239.66;;;11.10;60.64
58471;BME280;44258;51.288;12.068;2023-03-14T03:20:47;98228.91;;;11.10;60.56
58471;BME280;44258;51.288;12.068;2023-03-14T03:23:17;98218.16;;;11.20;60.11
58471;BME280;44258;51.288;12.068;2023-03-14T03:25:48;98214.19;;;11.14;60.09
58471;BME280;44258;51.288;12.068;2023-03-14T03:28:16;98217.97;;;11.22;59.97
58471;BME280;44258;51.288;12.068;2023-03-14T03:30:43;98222.78;;;11.28;59.49
58471;BME280;44258;51.288;12.068;2023-03-14T03:33:11;98215.72;;;11.17;59.59
58471;BME280;44258;51.288;12.068;2023-03-14T03:35:45;98220.41;;;11.15;59.50
58471;BME280;44258;51.288;12.068;2023-03-14T03:38:12;98207.09;;;11.33;59.24
58471;BME280;44258;51.288;12.068;2023-03-14T03:40:39;98195.34;;;11.24;59.23
58471;BME280;44258;51.288;12.068;2023-03-14T03:43:05;98209.06;;;11.31;59.02
58471;BME280;44258;51.288;12.068;2023-03-14T03:45:33;98198.88;;;11.25;58.96
58471;BME280;44258;51.288;12.068;2023-03-14T03:47:59;98195.78;;;11.10;59.23
58471;BME280;44258;51.288;12.068;2023-03-14T03:50:27;98189.53;;;11.09;58.88
58471;BME280;44258;51.288;12.068;2023-03-14T03:52:55;98185.56;;;11.13;59.00
58471;BME280;44258;51.288;12.068;2023-03-14T03:55:25;98191.09;;;11.12;58.97
58471;BME280;44258;51.288;12.068;2023-03-14T03:57:53;98190.94;;;11.13;59.04
58471;BME280;44258;51.288;12.068;2023-03-14T04:00:20;98185.44;;;11.05;59.14
58471;BME280;44258;51.288;12.068;2023-03-14T04:02:47;98203.97;;;11.08;59.08
58471;BME280;44258;51.288;12.068;2023-03-14T04:05:14;98202.13;;;11.09;59.06
58471;BME280;44258;51.288;12.068;2023-03-14T04:07:41;98205.97;;;11.16;58.92
58471;BME280;44258;51.288;12.068;2023-03-14T04:10:10;98192.09;;;11.21;58.85
58471;BME280;44258;51.288;12.068;2023-03-14T04:12:37;98197.88;;;11.26;58.98
58471;BME280;44258;51.288;12.068;2023-03-14T04:15:08;98195.75;;;11.29;58.55
58471;BME280;44258;51.288;12.068;2023-03-14T04:17:35;98194.47;;;11.33;58.57
58471;BME280;44258;51.288;12.068;2023-03-14T04:20:02;98181.59;;;11.37;58.43
58471;BME280;44258;51.288;12.068;2023-03-14T04:22:31;98178.31;;;11.33;58.50
58471;BME280;44258;51.288;12.068;2023-03-14T04:25:01;98167.72;;;11.32;58.53
58471;BME280;44258;51.288;12.068;2023-03-14T04:27:30;98159.94;;;11.29;58.67
58471;BME280;44258;51.288;12.068;2023-03-14T04:29:57;98159.78;;;11.30;58.75
58471;BME280;44258;51.288;12.068;2023-03-14T04:32:29;98167.44;;;11.25;58.84
58471;BME280;44258;51.288;12.068;2023-03-14T04:34:56;98164.59;;;11.27;58.72
58471;BME280;44258;51.288;12.068;2023-03-14T04:37:23;98153.97;;;11.35;58.70
58471;BME280;44258;51.288;12.068;2023-03-14T04:39:51;98149.16;;;11.39;58.57
58471;BME280;44258;51.288;12.068;2023-03-14T04:42:18;98146.31;;;11.40;58.32
58471;BME280;44258;51.288;12.068;2023-03-14T04:44:47;98140.81;;;11.32;58.59
58471;BME280;44258;51.288;12.068;2023-03-14T04:47:16;98138.41;;;11.29;58.69
58471;BME280;44258;51.288;12.068;2023-03-14T04:49:43;98142.38;;;11.34;58.30
58471;BME280;44258;51.288;12.068;2023-03-14T04:52:10;98135.28;;;11.24;58.65
58471;BME280;44258;51.288;12.068;2023-03-14T04:54:36;98145.06;;;11.25;58.61
58471;BME280;44258;51.288;12.068;2023-03-14T04:57:06;98149.75;;;11.23;58.78
58471;BME280;44258;51.288;12.068;2023-03-14T04:59:34;98149.63;;;11.24;58.81
58471;BME280;44258;51.288;12.068;2023-03-14T05:02:02;98123.88;;;11.02;59.27
58471;BME280;44258;51.288;12.068;2023-03-14T05:04:29;98121.75;;;11.06;59.23
58471;BME280;44258;51.288;12.068;2023-03-14T05:06:58;98114.22;;;11.09;59.11
58471;BME280;44258;51.288;12.068;2023-03-14T05:09:26;98113.97;;;11.03;59.33
58471;BME280;44258;51.288;12.068;2023-03-14T05:11:53;98109.84;;;10.99;59.38
58471;BME280;44258;51.288;12.068;2023-03-14T05:14:23;98121.63;;;10.98;59.27
58471;BME280;44258;51.288;12.068;2023-03-14T05:16:50;98122.75;;;10.85;59.67
58471;BME280;44258;51.288;12.068;2023-03-14T05:19:18;98112.28;;;10.82;59.79
58471;BME280;44258;51.288;12.068;2023-03-14T05:21:45;98120.91;;;10.86;59.74
58471;BME280;44258;51.288;12.068;2023-03-14T05:24:11;98105.19;;;10.71;59.95
58471;BME280;44258;51.288;12.068;2023-03-14T05:26:38;98119.50;;;10.82;59.75
58471;BME280;44258;51.288;12.068;2023-03-14T05:29:05;98114.78;;;10.64;60.16
58471;BME280;44258;51.288;12.068;2023-03-14T05:31:31;98105.63;;;10.67;60.06
58471;BME280;44258;51.288;12.068;2023-03-14T05:33:58;98110.13;;;10.76;59.94
58471;BME280;44258;51.288;12.068;2023-03-14T05:36:29;98110.03;;;10.87;59.58
58471;BME280;44258;51.288;12.068;2023-03-14T05:38:56;98109.28;;;10.56;60.44
58471;BME280;44258;51.288;12.068;2023-03-14T05:41:23;98111.97;;;10.75;59.95
58471;BME280;44258;51.288;12.068;2023-03-14T05:43:49;98105.91;;;10.73;60.00
58471;BME280;44258;51.288;12.068;2023-03-14T05:46:16;98114.53;;;10.77;59.80
58471;BME280;44258;51.288;12.068;2023-03-14T05:48:43;98110.84;;;10.78;59.96
58471;BME280;44258;51.288;12.068;2023-03-14T05:51:10;98105.91;;;10.73;60.10
58471;BME280;44258;51.288;12.068;2023-03-14T05:53:38;98105.63;;;10.67;60.27
58471;BME280;44258;51.288;12.068;2023-03-14T05:56:06;98118.91;;;10.68;60.31
58471;BME280;44258;51.288;12.068;2023-03-14T05:58:33;98115.22;;;10.69;60.16
58471;BME280;44258;51.288;12.068;2023-03-14T06:01:02;98111.97;;;10.56;60.64
58471;BME280;44258;51.288;12.068;2023-03-14T06:03:29;98109.41;;;10.54;60.51
58471;BME280;44258;51.288;12.068;2023-03-14T06:05:55;98107.16;;;10.60;60.56
58471;BME280;44258;51.288;12.068;2023-03-14T06:08:22;98103.75;;;10.58;60.64
58471;BME280;44258;51.288;12.068;2023-03-14T06:10:52;98102.75;;;10.59;60.61
58471;BME280;44258;51.288;12.068;2023-03-14T06:13:19;98098.25;;;10.59;60.47
58471;BME280;44258;51.288;12.068;2023-03-14T06:15:46;98102.47;;;10.42;61.04
58471;BME280;44258;51.288;12.068;2023-03-14T06:18:13;98102.19;;;10.45;61.33
58471;BME280;44258;51.288;12.068;2023-03-14T06:20:40;98098.81;;;10.43;61.10
58471;BME280;44258;51.288;12.068;2023-03-14T06:23:07;98100.63;;;10.52;60.77
58471;BME280;44258;51.288;12.068;2023-03-14T06:25:35;98101.50;;;10.53;60.80
58471;BME280;44258;51.288;12.068;2023-03-14T06:28:05;98102.91;;;10.38;61.20
58471;BME280;44258;51.288;12.068;2023-03-14T06:30:32;98107.72;;;10.44;61.20
58471;BME280;44258;51.288;12.068;2023-03-14T06:32:59;98108.44;;;10.55;60.63
58471;BME280;44258;51.288;12.068;2023-03-14T06:35:25;98111.84;;;10.67;60.58
58471;BME280;44258;51.288;12.068;2023-03-14T06:37:53;98114.38;;;10.59;60.39
58471;BME280;44258;51.288;12.068;2023-03-14T06:40:20;98120.72;;;10.58;60.25
58471;BME280;44258;51.288;12.068;2023-03-14T06:42:47;98111.53;;;10.61;60.29
58471;BME280;44258;51.288;12.068;2023-03-14T06:45:15;98125.69;;;10.53;60.20
58471;BME280;44258;51.288;12.068;2023-03-14T06:47:42;98122.72;;;10.56;60.38
58471;BME280;44258;51.288;12.068;2023-03-14T06:50:10;98113.22;;;10.52;60.21
58471;BME280;44258;51.288;12.068;2023-03-14T06:52:37;98114.06;;;10.52;60.05
58471;BME280;44258;51.288;12.068;2023-03-14T06:55:07;98117.63;;;10.53;59.98
58471;BME280;44258;51.288;12.068;2023-03-14T06:57:35;98115.38;;;10.68;59.47
58471;BME280;44258;51.288;12.068;2023-03-14T07:00:02;98126.41;;;10.65;59.49
58471;BME280;44258;51.288;12.068;2023-03-14T07:02:32;98115.22;;;10.60;59.60
58471;BME280;44258;51.288;12.068;2023-03-14T07:04:59;98111.25;;;10.64;59.25
58471;BME280;44258;51.288;12.068;2023-03-14T07:07:26;98121.44;;;10.70;59.01
58471;BME280;44258;51.288;12.068;2023-03-14T07:09:52;98119.03;;;10.57;59.05
58471;BME280;44258;51.288;12.068;2023-03-14T07:12:19;98116.66;;;10.73;58.80
58471;BME280;44258;51.288;12.068;2023-03-14T07:14:46;98119.50;;;10.82;58.53
58471;BME280;44258;51.288;12.068;2023-03-14T07:17:12;98112.84;;;10.96;58.28
58471;BME280;44258;51.288;12.068;2023-03-14T07:19:41;98116.25;;;10.88;58.14
58471;BME280;44258;51.288;12.068;2023-03-14T07:22:08;98121.31;;;10.91;58.06
58471;BME280;44258;51.288;12.068;2023-03-14T07:24:34;98121.63;;;10.98;58.04
58471;BME280;44258;51.288;12.068;2023-03-14T07:27:01;98115.22;;;11.08;57.82
58471;BME280;44258;51.288;12.068;2023-03-14T07:29:28;98118.19;;;11.15;57.58
58471;BME280;44258;51.288;12.068;2023-03-14T07:31:54;98115.47;;;11.25;57.27
58471;BME280;44258;51.288;12.068;2023-03-14T07:34:21;98111.06;;;11.24;57.24
58471;BME280;44258;51.288;12.068;2023-03-14T07:36:50;98116.47;;;11.24;57.16
58471;BME280;44258;51.288;12.068;2023-03-14T07:39:17;98111.38;;;11.11;57.35
58471;BME280;44258;51.288;12.068;2023-03-14T07:41:43;98108.56;;;11.03;57.67
58471;BME280;44258;51.288;12.068;2023-03-14T07:44:11;98104.03;;;11.03;57.69
58471;BME280;44258;51.288;12.068;2023-03-14T07:46:37;98111.56;;;10.90;57.89
58471;BME280;44258;51.288;12.068;2023-03-14T07:49:04;98111.00;;;11.06;57.41
58471;BME280;44258;51.288;12.068;2023-03-14T07:51:31;98117.91;;;11.18;57.24
58471;BME280;44258;51.288;12.068;2023-03-14T07:53:59;98106.69;;;11.23;57.15
58471;BME280;44258;51.288;12.068;2023-03-14T07:56:26;98118.84;;;11.37;56.64
58471;BME280;44258;51.288;12.068;2023-03-14T07:58:52;98122.22;;;11.48;56.87
58471;BME280;44258;51.288;12.068;2023-03-14T08:01:19;98128.13;;;11.62;56.52
58471;BME280;44258;51.288;12.068;2023-03-14T08:03:46;98132.34;;;11.64;55.88
58471;BME280;44258;51.288;12.068;2023-03-14T08:06:12;98135.50;;;11.50;56.13
58471;BME280;44258;51.288;12.068;2023-03-14T08:08:39;98121.19;;;11.59;56.20
58471;BME280;44258;51.288;12.068;2023-03-14T08:11:07;98115.59;;;11.70;56.42
58471;BME280;44258;51.288;12.068;2023-03-14T08:13:36;98118.56;;;11.77;56.32
58471;BME280;44258;51.288;12.068;2023-03-14T08:16:03;98110.94;;;12.00;55.95
58471;BME280;44258;51.288;12.068;2023-03-14T08:18:33;98107.53;;;12.08;55.13
58471;BME280;44258;51.288;12.068;2023-03-14T08:21:00;98106.53;;;12.09;55.13
58471;BME280;44258;51.288;12.068;2023-03-14T08:23:27;98104.25;;;12.04;54.92
58471;BME280;44258;51.288;12.068;2023-03-14T08:25:53;98105.34;;;11.84;55.16
58471;BME280;44258;51.288;12.068;2023-03-14T08:28:21;98109.41;;;11.98;54.97
58471;BME280;44258;51.288;12.068;2023-03-14T08:30:48;98104.72;;;12.00;54.52
58471;BME280;44258;51.288;12.068;2023-03-14T08:33:15;98095.78;;;11.99;54.73
58471;BME280;44258;51.288;12.068;2023-03-14T08:35:42;98098.03;;;12.04;54.89
58471;BME280;44258;51.288;12.068;2023-03-14T08:38:09;98103.22;;;12.15;54.17
58471;BME280;44258;51.288;12.068;2023-03-14T08:40:36;98088.31;;;12.21;54.25
58471;BME280;44258;51.288;12.068;2023-03-14T08:43:02;98096.72;;;12.18;54.00
58471;BME280;44258;51.288;12.068;2023-03-14T08:45:30;98106.84;;;12.06;54.38
58471;BME280;44258;51.288;12.068;2023-03-14T08:47:57;98103.56;;;12.02;54.41
58471;BME280;44258;51.288;12.068;2023-03-14T08:50:24;98108.09;;;12.11;54.36
58471;BME280;44258;51.288;12.068;2023-03-14T08:52:51;98108.88;;;12.22;54.42
58471;BME280;44258;51.288;12.068;2023-03-14T08:55:18;98108.63;;;12.15;54.23
58471;BME280;44258;51.288;12.068;2023-03-14T08:57:45;98113.72;;;12.18;54.70
58471;BME280;44258;51.288;12.068;2023-03-14T09:00:12;98119.19;;;12.26;54.69
58471;BME280;44258;51.288;12.068;2023-03-14T09:02:41;98123.25;;;12.03;54.98
58471;BME280;44258;51.288;12.068;2023-03-14T09:05:08;98130.72;;;12.19;55.12
58471;BME280;44258;51.288;12.068;2023-03-14T09:07:36;98124.72;;;12.25;54.97
58471;BME280;44258;51.288;12.068;2023-03-14T09:10:04;98122.19;;;12.23;55.28
58471;BME280;44258;51.288;12.068;2023-03-14T09:12:30;98135.91;;;12.30;55.06
58471;BME280;44258;51.288;12.068;2023-03-14T09:14:57;98135.38;;;12.26;54.91
58471;BME280;44258;51.288;12.068;2023-03-14T09:17:24;98126.63;;;12.42;54.69
58471;BME280;44258;51.288;12.068;2023-03-14T09:19:52;98116.03;;;12.31;54.09
58471;BME280;44258;51.288;12.068;2023-03-14T09:22:19;98123.97;;;12.32;54.42
58471;BME280;44258;51.288;12.068;2023-03-14T09:24:46;98124.56;;;11.99;54.79
58471;BME280;44258;51.288;12.068;2023-03-14T09:27:13;98128.59;;;12.22;55.11
58471;BME280;44258;51.288;12.068;2023-03-14T09:29:40;98133.78;;;12.51;54.48
58471;BME280;44258;51.288;12.068;2023-03-14T09:32:07;98133.72;;;12.61;54.27
58471;BME280;44258;51.288;12.068;2023-03-14T09:34:34;98130.53;;;12.66;54.33
58471;BME280;44258;51.288;12.068;2023-03-14T09:37:02;98120.09;;;12.81;53.76
58471;BME280;44258;51.288;12.068;2023-03-14T09:39:30;98127.69;;;12.67;53.83
58471;BME280;44258;51.288;12.068;2023-03-14T09:42:01;98117.94;;;12.66;53.41
58471;BME280;44258;51.288;12.068;2023-03-14T09:44:30;98117.53;;;12.61;53.84
58471;BME280;44258;51.288;12.068;2023-03-14T09:47:01;98120.38;;;12.78;53.75
58471;BME280;44258;51.288;12.068;2023-03-14T09:49:31;98108.47;;;12.62;53.84
58471;BME280;44258;51.288;12.068;2023-03-14T09:51:59;98103.50;;;12.93;53.25
58471;BME280;44258;51.288;12.068;2023-03-14T09:54:33;98104.09;;;13.05;52.91
58471;BME280;44258;51.288;12.068;2023-03-14T09:57:02;98102.94;;;13.08;52.70
58471;BME280;44258;51.288;12.068;2023-03-14T09:59:29;98106.00;;;13.13;52.90
58471;BME280;44258;51.288;12.068;2023-03-14T10:01:58;98097.06;;;13.30;52.73
58471;BME280;44258;51.288;12.068;2023-03-14T10:04:27;98105.25;;;13.03;52.91
58471;BME280;44258;51.288;12.068;2023-03-14T10:06:55;98099.97;;;12.93;53.08
58471;BME280;44258;51.288;12.068;2023-03-14T10:09:23;98089.81;;;13.13;52.64
58471;BME280;44258;51.288;12.068;2023-03-14T10:11:54;98101.41;;;13.05;52.38
58471;BME280;44258;51.288;12.068;2023-03-14T10:14:31;98104.09;;;13.05;52.35
58471;BME280;44258;51.288;12.068;2023-03-14T10:17:04;98107.97;;;12.85;52.27
58471;BME280;44258;51.288;12.068;2023-03-14T10:19:31;98110.75;;;12.93;52.15
58471;BME280;44258;51.288;12.068;2023-03-14T10:22:00;98116.66;;;12.97;51.54
58471;BME280;44258;51.288;12.068;2023-03-14T10:24:32;98128.69;;;13.02;52.17
58471;BME280;44258;51.288;12.068;2023-03-14T10:27:03;98115.41;;;13.09;51.74
58471;BME280;44258;51.288;12.068;2023-03-14T10:29:34;98109.06;;;13.36;51.63
58471;BME280;44258;51.288;12.068;2023-03-14T10:32:03;98121.53;;;13.37;51.73
58471;BME280;44258;51.288;12.068;2023-03-14T10:34:31;98127.34;;;13.42;51.58
58471;BME280;44258;51.288;12.068;2023-03-14T10:37:05;98125.69;;;13.49;52.10
58471;BME280;44258;51.288;12.068;2023-03-14T10:39:38;98131.22;;;13.40;51.81
58471;BME280;44258;51.288;12.068;2023-03-14T10:42:16;98132.41;;;13.45;51.18
58471;BME280;44258;51.288;12.068;2023-03-14T10:44:51;98140.19;;;13.22;51.74
58471;BME280;44258;51.288;12.068;2023-03-14T10:47:24;98144.78;;;13.30;51.78
58471;BME280;44258;51.288;12.068;2023-03-14T10:49:53;98140.78;;;13.34;51.90
58471;BME280;44258;51.288;12.068;2023-03-14T10:52:22;98154.41;;;13.32;51.25
58471;BME280;44258;51.288;12.068;2023-03-14T10:54:55;98152.59;;;12.79;52.26
58471;BME280;44258;51.288;12.068;2023-03-14T10:57:25;98141.19;;;12.85;52.51
58471;BME280;44258;51.288;12.068;2023-03-14T10:59:53;98143.25;;;13.09;52.31
58471;BME280;44258;51.288;12.068;2023-03-14T11:02:48;98145.47;;;13.32;52.22
58471;BME280;44258;51.288;12.068;2023-03-14T11:05:27;98141.56;;;13.26;52.41
58471;BME280;44258;51.288;12.068;2023-03-14T11:08:01;98134.75;;;13.40;52.13
58471;BME280;44258;51.288;12.068;2023-03-14T11:10:32;98129.91;;;13.26;52.34
58471;BME280;44258;51.288;12.068;2023-03-14T11:13:12;98128.59;;;13.30;52.02
58471;BME280;44258;51.288;12.068;2023-03-14T11:15:48;98115.25;;;13.28;51.50
58471;BME280;44258;51.288;12.068;2023-03-14T11:18:44;98123.13;;;13.22;51.89
58471;BME280;44258;51.288;12.068;2023-03-14T11:21:21;98117.47;;;13.33;52.00
58471;BME280;44258;51.288;12.068;2023-03-14T11:24:02;98134.31;;;13.27;51.53
58471;BME280;44258;51.288;12.068;2023-03-14T11:26:37;98131.44;;;13.28;51.83
58471;BME280;44258;51.288;12.068;2023-03-14T11:29:19;98135.91;;;13.38;52.07
58471;BME280;44258;51.288;12.068;2023-03-14T11:31:47;98147.19;;;13.59;51.53
58471;BME280;44258;51.288;12.068;2023-03-14T11:34:17;98133.53;;;13.61;51.32
58471;BME280;44258;51.288;12.068;2023-03-14T11:36:52;98139.22;;;13.58;51.43
58471;BME280;44258;51.288;12.068;2023-03-14T11:39:20;98140.16;;;13.66;51.67
58471;BME280;44258;51.288;12.068;2023-03-14T11:41:50;98130.81;;;13.61;51.73
58471;BME280;44258;51.288;12.068;2023-03-14T11:44:25;98125.63;;;13.41;51.86
58471;BME280;44258;51.288;12.068;2023-03-14T11:46:57;98129.13;;;13.33;51.79
58471;BME280;44258;51.288;12.068;2023-03-14T11:49:32;98131.09;;;13.05;52.28
58471;BME280;44258;51.288;12.068;2023-03-14T11:52:07;98129.38;;;13.22;52.68
58471;BME280;44258;51.288;12.068;2023-03-14T11:54:41;98120.72;;;13.19;52.24
58471;BME280;44258;51.288;12.068;2023-03-14T11:57:12;98136.91;;;13.63;52.42
58471;BME280;44258;51.288;12.068;2023-03-14T11:59:48;98130.56;;;13.46;52.38
58471;BME280;44258;51.288;12.068;2023-03-14T12:02:22;98137.19;;;13.25;52.17
58471;BME280;44258;51.288;12.068;2023-03-14T12:04:59;98141.41;;;13.28;53.48
58471;BME280;44258;51.288;12.068;2023-03-14T12:07:38;98157.59;;;12.74;55.82
58471;BME280;44258;51.288;12.068;2023-03-14T12:10:13;98133.50;;;12.72;57.50
58471;BME280;44258;51.288;12.068;2023-03-14T12:12:40;98130.47;;;12.75;57.65
58471;BME280;44258;51.288;12.068;2023-03-14T12:15:19;98125.16;;;12.84;56.95
58471;BME280;44258;51.288;12.068;2023-03-14T12:17:47;98122.81;;;13.25;56.45
58471;BME280;44258;51.288;12.068;2023-03-14T12:20:20;98112.56;;;13.54;55.61
58471;BME280;44258;51.288;12.068;2023-03-14T12:22:49;98111.81;;;13.70;55.09
58471;BME280;44258;51.288;12.068;2023-03-14T12:25:22;98105.63;;;13.86;54.28
58471;BME280;44258;51.288;12.068;2023-03-14T12:28:18;98104.34;;;13.99;52.95
58471;BME280;44258;51.288;12.068;2023-03-14T12:30:47;98112.44;;;13.99;51.63
58471;BME280;44258;51.288;12.068;2023-03-14T12:33:32;98109.41;;;14.02;51.91
58471;BME280;44258;51.288;12.068;2023-03-14T12:36:01;98105.75;;;14.11;51.40
58471;BME280;44258;51.288;12.068;2023-03-14T12:38:43;98107.72;;;14.01;50.82
58471;BME280;44258;51.288;12.068;2023-03-14T12:41:15;98103.84;;;14.03;50.81
58471;BME280;44258;51.288;12.068;2023-03-14T12:43:44;98098.75;;;14.00;51.12
58471;BME280;44258;51.288;12.068;2023-03-14T12:46:23;98096.44;;;14.05;50.84
58471;BME280;44258;51.288;12.068;2023-03-14T12:48:55;98094.88;;;13.94;51.51
58471;BME280;44258;51.288;12.068;2023-03-14T12:51:33;98095.22;;;14.00;51.43
58471;BME280;44258;51.288;12.068;2023-03-14T12:54:25;98097.75;;;14.01;50.58
58471;BME280;44258;51.288;12.068;2023-03-14T12:57:09;98094.81;;;13.86;50.86
58471;BME280;44258;51.288;12.068;2023-03-14T12:59:46;98098.78;;;14.08;51.04
58471;BME280;44258;51.288;12.068;2023-03-14T13:02:21;98098.69;;;14.26;50.20